sensor_id;sensor_type;location;lat;lon;timestamp;P1;durP1;ratioP1;P2;durP2;ratioP2
75758;SDS011;64371;47.566;19.086;2023-05-21T00:02:19;14.38;;;8.68;;
75758;SDS011;64371;47.566;19.086;2023-05-21T00:05:22;15.18;;;8.18;;
75758;SDS011;64371;47.566;19.086;2023-05-21T00:08:24;14.33;;;8.57;;
75758;SDS011;64371;47.566;19.086;2023-05-21T00:11:27;13.15;;;8.25;;
75758;SDS011;64371;47.566;19.086;2023-05-21T00:14:29;14.02;;;8.15;;
75758;SDS011;64371;47.566;19.086;2023-05-21T00:17:31;12.70;;;8.15;;
75758;SDS011;64371;47.566;19.086;2023-05-21T00:20:35;13.40;;;8.13;;
75758;SDS011;64371;47.566;19.086;2023-05-21T00:23:38;12.17;;;7.70;;
75758;SDS011;64371;47.566;19.086;2023-05-21T00:26:42;9.93;;;7.65;;
75758;SDS011;64371;47.566;19.086;2023-05-21T00:29:44;10.75;;;7.78;;
75758;SDS011;64371;47.566;19.086;2023-05-21T00:32:46;11.32;;;7.80;;
75758;SDS011;64371;47.566;19.086;2023-05-21T00:35:49;12.07;;;7.13;;
75758;SDS011;64371;47.566;19.086;2023-05-21T00:38:51;11.03;;;7.93;;
75758;SDS011;64371;47.566;19.086;2023-05-21T00:41:54;10.75;;;7.18;;
75758;SDS011;64371;47.566;19.086;2023-05-21T00:44:58;11.48;;;8.25;;
75758;SDS011;64371;47.566;19.086;2023-05-21T00:48:00;14.57;;;8.13;;
75758;SDS011;64371;47.566;19.086;2023-05-21T00:51:07;13.48;;;7.82;;
75758;SDS011;64371;47.566;19.086;2023-05-21T00:54:10;14.30;;;7.80;;
75758;SDS011;64371;47.566;19.086;2023-05-21T00:57:13;12.40;;;7.97;;
75758;SDS011;64371;47.566;19.086;2023-05-21T01:00:15;13.35;;;8.07;;
75758;SDS011;64371;47.566;19.086;2023-05-21T01:03:18;11.38;;;7.85;;
75758;SDS011;64371;47.566;19.086;2023-05-21T01:06:21;11.05;;;7.80;;
75758;SDS011;64371;47.566;19.086;2023-05-21T01:09:24;11.37;;;7.80;;
75758;SDS011;64371;47.566;19.086;2023-05-21T01:12:28;13.10;;;7.63;;
75758;SDS011;64371;47.566;19.086;2023-05-21T01:15:31;12.25;;;7.60;;
75758;SDS011;64371;47.566;19.086;2023-05-21T01:18:34;11.60;;;7.60;;
75758;SDS011;64371;47.566;19.086;2023-05-21T01:21:40;11.93;;;7.93;;
75758;SDS011;64371;47.566;19.086;2023-05-21T01:24:48;10.73;;;7.53;;
75758;SDS011;64371;47.566;19.086;2023-05-21T01:27:51;11.50;;;8.15;;
75758;SDS011;64371;47.566;19.086;2023-05-21T01:30:53;11.18;;;7.63;;
75758;SDS011;64371;47.566;19.086;2023-05-21T01:34:03;9.98;;;7.68;;
75758;SDS011;64371;47.566;19.086;2023-05-21T01:37:13;12.45;;;7.55;;
75758;SDS011;64371;47.566;19.086;2023-05-21T01:43:37;11.88;;;8.25;;
75758;SDS011;64371;47.566;19.086;2023-05-21T01:46:42;12.27;;;8.18;;
75758;SDS011;64371;47.566;19.086;2023-05-21T01:49:44;12.70;;;8.15;;
75758;SDS011;64371;47.566;19.086;2023-05-21T01:52:50;11.15;;;7.88;;
75758;SDS011;64371;47.566;19.086;2023-05-21T01:55:54;12.50;;;7.93;;
75758;SDS011;64371;47.566;19.086;2023-05-21T01:58:57;10.40;;;7.80;;
75758;SDS011;64371;47.566;19.086;2023-05-21T02:02:00;13.48;;;8.07;;
75758;SDS011;64371;47.566;19.086;2023-05-21T02:05:03;12.00;;;8.20;;
75758;SDS011;64371;47.566;19.086;2023-05-21T02:08:05;12.23;;;8.30;;
75758;SDS011;64371;47.566;19.086;2023-05-21T02:11:11;16.57;;;8.70;;
75758;SDS011;64371;47.566;19.086;2023-05-21T02:14:13;11.80;;;8.57;;
75758;SDS011;64371;47.566;19.086;2023-05-21T02:17:15;11.70;;;8.45;;
75758;SDS011;64371;47.566;19.086;2023-05-21T02:20:18;12.55;;;8.40;;
75758;SDS011;64371;47.566;19.086;2023-05-21T02:23:20;13.43;;;8.20;;
75758;SDS011;64371;47.566;19.086;2023-05-21T02:26:23;11.50;;;7.70;;
75758;SDS011;64371;47.566;19.086;2023-05-21T02:29:25;14.57;;;8.07;;
75758;SDS011;64371;47.566;19.086;2023-05-21T02:32:28;13.68;;;8.50;;
75758;SDS011;64371;47.566;19.086;2023-05-21T02:35:33;13.98;;;8.38;;
75758;SDS011;64371;47.566;19.086;2023-05-21T02:38:36;12.45;;;8.50;;
75758;SDS011;64371;47.566;19.086;2023-05-21T02:41:39;11.37;;;8.70;;
75758;SDS011;64371;47.566;19.086;2023-05-21T02:44:41;12.35;;;8.38;;
75758;SDS011;64371;47.566;19.086;2023-05-21T02:47:43;12.45;;;8.82;;
75758;SDS011;64371;47.566;19.086;2023-05-21T02:50:46;13.98;;;8.35;;
75758;SDS011;64371;47.566;19.086;2023-05-21T02:53:48;16.20;;;8.50;;
75758;SDS011;64371;47.566;19.086;2023-05-21T02:56:52;12.37;;;7.83;;
75758;SDS011;64371;47.566;19.086;2023-05-21T02:59:54;12.18;;;8.65;;
75758;SDS011;64371;47.566;19.086;2023-05-21T03:02:57;13.00;;;8.52;;
75758;SDS011;64371;47.566;19.086;2023-05-21T03:06:00;11.65;;;7.93;;
75758;SDS011;64371;47.566;19.086;2023-05-21T03:09:03;12.63;;;8.77;;
75758;SDS011;64371;47.566;19.086;2023-05-21T03:12:07;13.27;;;8.63;;
75758;SDS011;64371;47.566;19.086;2023-05-21T03:15:10;14.68;;;8.90;;
75758;SDS011;64371;47.566;19.086;2023-05-21T03:18:15;13.60;;;8.68;;
75758;SDS011;64371;47.566;19.086;2023-05-21T03:21:18;14.98;;;8.90;;
75758;SDS011;64371;47.566;19.086;2023-05-21T03:24:23;14.35;;;8.50;;
75758;SDS011;64371;47.566;19.086;2023-05-21T03:27:26;13.50;;;8.83;;
75758;SDS011;64371;47.566;19.086;2023-05-21T03:30:29;16.92;;;9.48;;
75758;SDS011;64371;47.566;19.086;2023-05-21T03:33:51;13.98;;;9.10;;
75758;SDS011;64371;47.566;19.086;2023-05-21T03:37:01;12.30;;;8.50;;
75758;SDS011;64371;47.566;19.086;2023-05-21T03:40:05;12.90;;;7.97;;
75758;SDS011;64371;47.566;19.086;2023-05-21T03:43:08;13.80;;;8.50;;
75758;SDS011;64371;47.566;19.086;2023-05-21T03:46:11;11.40;;;8.10;;
75758;SDS011;64371;47.566;19.086;2023-05-21T03:49:30;12.18;;;8.07;;
75758;SDS011;64371;47.566;19.086;2023-05-21T03:52:33;15.13;;;8.43;;
75758;SDS011;64371;47.566;19.086;2023-05-21T03:55:36;13.88;;;8.48;;
75758;SDS011;64371;47.566;19.086;2023-05-21T03:58:39;14.03;;;8.60;;
75758;SDS011;64371;47.566;19.086;2023-05-21T04:01:41;13.18;;;7.60;;
75758;SDS011;64371;47.566;19.086;2023-05-21T04:04:46;13.10;;;8.07;;
75758;SDS011;64371;47.566;19.086;2023-05-21T04:07:49;11.38;;;8.18;;
75758;SDS011;64371;47.566;19.086;2023-05-21T04:10:51;10.52;;;7.20;;
75758;SDS011;64371;47.566;19.086;2023-05-21T04:13:54;11.57;;;7.43;;
75758;SDS011;64371;47.566;19.086;2023-05-21T04:16:57;12.82;;;7.90;;
75758;SDS011;64371;47.566;19.086;2023-05-21T04:20:00;10.25;;;7.45;;
75758;SDS011;64371;47.566;19.086;2023-05-21T04:23:04;10.15;;;7.38;;
75758;SDS011;64371;47.566;19.086;2023-05-21T04:26:06;10.15;;;7.43;;
75758;SDS011;64371;47.566;19.086;2023-05-21T04:29:09;11.20;;;7.17;;
75758;SDS011;64371;47.566;19.086;2023-05-21T04:32:11;10.57;;;7.13;;
75758;SDS011;64371;47.566;19.086;2023-05-21T04:35:16;10.93;;;7.60;;
75758;SDS011;64371;47.566;19.086;2023-05-21T04:38:18;8.70;;;6.65;;
75758;SDS011;64371;47.566;19.086;2023-05-21T04:41:21;12.50;;;7.18;;
75758;SDS011;64371;47.566;19.086;2023-05-21T04:44:24;10.27;;;6.83;;
75758;SDS011;64371;47.566;19.086;2023-05-21T04:47:26;9.50;;;6.50;;
75758;SDS011;64371;47.566;19.086;2023-05-21T04:50:37;10.57;;;7.15;;
75758;SDS011;64371;47.566;19.086;2023-05-21T04:53:39;15.93;;;6.95;;
75758;SDS011;64371;47.566;19.086;2023-05-21T04:56:42;9.93;;;7.88;;
75758;SDS011;64371;47.566;19.086;2023-05-21T04:59:45;10.23;;;7.20;;
75758;SDS011;64371;47.566;19.086;2023-05-21T05:02:49;10.25;;;7.03;;
75758;SDS011;64371;47.566;19.086;2023-05-21T05:05:51;9.32;;;6.50;;
75758;SDS011;64371;47.566;19.086;2023-05-21T05:08:54;11.57;;;6.75;;
75758;SDS011;64371;47.566;19.086;2023-05-21T05:11:57;8.82;;;6.65;;
75758;SDS011;64371;47.566;19.086;2023-05-21T05:15:00;8.30;;;6.37;;
75758;SDS011;64371;47.566;19.086;2023-05-21T05:18:02;9.00;;;5.80;;
75758;SDS011;64371;47.566;19.086;2023-05-21T05:21:05;9.60;;;5.45;;
75758;SDS011;64371;47.566;19.086;2023-05-21T05:24:07;6.47;;;5.20;;
75758;SDS011;64371;47.566;19.086;2023-05-21T05:27:10;6.57;;;5.00;;
75758;SDS011;64371;47.566;19.086;2023-05-21T05:30:12;8.43;;;4.97;;
75758;SDS011;64371;47.566;19.086;2023-05-21T05:33:15;7.63;;;4.80;;
75758;SDS011;64371;47.566;19.086;2023-05-21T05:36:17;5.93;;;4.47;;
75758;SDS011;64371;47.566;19.086;2023-05-21T05:39:20;6.95;;;5.00;;
75758;SDS011;64371;47.566;19.086;2023-05-21T05:42:22;6.07;;;4.60;;
75758;SDS011;64371;47.566;19.086;2023-05-21T05:45:25;6.27;;;4.70;;
75758;SDS011;64371;47.566;19.086;2023-05-21T05:48:28;7.25;;;5.15;;
75758;SDS011;64371;47.566;19.086;2023-05-21T05:51:31;8.68;;;5.68;;
75758;SDS011;64371;47.566;19.086;2023-05-21T05:54:34;5.80;;;4.60;;
75758;SDS011;64371;47.566;19.086;2023-05-21T05:57:36;8.30;;;4.65;;
75758;SDS011;64371;47.566;19.086;2023-05-21T06:00:44;6.90;;;3.93;;
75758;SDS011;64371;47.566;19.086;2023-05-21T06:03:47;5.72;;;4.47;;
75758;SDS011;64371;47.566;19.086;2023-05-21T06:06:51;5.28;;;4.13;;
75758;SDS011;64371;47.566;19.086;2023-05-21T06:09:55;6.53;;;4.25;;
75758;SDS011;64371;47.566;19.086;2023-05-21T06:12:57;6.90;;;4.85;;
75758;SDS011;64371;47.566;19.086;2023-05-21T06:16:00;9.70;;;4.37;;
75758;SDS011;64371;47.566;19.086;2023-05-21T06:19:02;7.38;;;4.95;;
75758;SDS011;64371;47.566;19.086;2023-05-21T06:22:05;5.53;;;4.70;;
75758;SDS011;64371;47.566;19.086;2023-05-21T06:25:07;6.10;;;4.50;;
75758;SDS011;64371;47.566;19.086;2023-05-21T06:28:12;7.45;;;4.75;;
75758;SDS011;64371;47.566;19.086;2023-05-21T06:31:15;5.03;;;3.80;;
75758;SDS011;64371;47.566;19.086;2023-05-21T06:34:18;7.00;;;4.72;;
75758;SDS011;64371;47.566;19.086;2023-05-21T06:37:20;6.50;;;4.47;;
75758;SDS011;64371;47.566;19.086;2023-05-21T06:40:26;7.72;;;4.80;;
75758;SDS011;64371;47.566;19.086;2023-05-21T06:43:31;6.20;;;4.65;;
75758;SDS011;64371;47.566;19.086;2023-05-21T06:46:52;6.57;;;4.37;;
75758;SDS011;64371;47.566;19.086;2023-05-21T06:49:54;6.47;;;4.38;;
75758;SDS011;64371;47.566;19.086;2023-05-21T06:52:57;6.30;;;5.15;;
75758;SDS011;64371;47.566;19.086;2023-05-21T06:56:00;7.10;;;4.60;;
75758;SDS011;64371;47.566;19.086;2023-05-21T06:59:10;9.95;;;4.60;;
75758;SDS011;64371;47.566;19.086;2023-05-21T07:02:13;8.77;;;4.47;;
75758;SDS011;64371;47.566;19.086;2023-05-21T07:05:16;6.53;;;4.18;;
75758;SDS011;64371;47.566;19.086;2023-05-21T07:08:19;5.82;;;4.78;;
75758;SDS011;64371;47.566;19.086;2023-05-21T07:11:21;5.30;;;4.45;;
75758;SDS011;64371;47.566;19.086;2023-05-21T07:14:26;6.50;;;3.80;;
75758;SDS011;64371;47.566;19.086;2023-05-21T07:17:28;10.40;;;3.80;;
75758;SDS011;64371;47.566;19.086;2023-05-21T07:20:31;4.72;;;4.13;;
75758;SDS011;64371;47.566;19.086;2023-05-21T07:23:37;7.82;;;4.72;;
75758;SDS011;64371;47.566;19.086;2023-05-21T07:26:41;6.00;;;4.40;;
75758;SDS011;64371;47.566;19.086;2023-05-21T07:29:45;10.65;;;4.43;;
75758;SDS011;64371;47.566;19.086;2023-05-21T07:32:49;8.67;;;4.77;;
75758;SDS011;64371;47.566;19.086;2023-05-21T07:35:52;7.78;;;4.30;;
75758;SDS011;64371;47.566;19.086;2023-05-21T07:38:54;5.70;;;4.20;;
75758;SDS011;64371;47.566;19.086;2023-05-21T07:41:57;6.75;;;3.63;;
75758;SDS011;64371;47.566;19.086;2023-05-21T07:44:59;6.28;;;4.43;;
75758;SDS011;64371;47.566;19.086;2023-05-21T07:48:07;5.47;;;4.17;;
75758;SDS011;64371;47.566;19.086;2023-05-21T07:51:14;5.93;;;3.72;;
75758;SDS011;64371;47.566;19.086;2023-05-21T07:54:17;5.93;;;3.80;;
75758;SDS011;64371;47.566;19.086;2023-05-21T07:57:20;4.53;;;4.13;;
75758;SDS011;64371;47.566;19.086;2023-05-21T08:00:41;6.25;;;4.68;;
75758;SDS011;64371;47.566;19.086;2023-05-21T08:03:48;5.70;;;4.00;;
75758;SDS011;64371;47.566;19.086;2023-05-21T08:06:50;4.72;;;4.05;;
75758;SDS011;64371;47.566;19.086;2023-05-21T08:09:53;6.93;;;4.38;;
75758;SDS011;64371;47.566;19.086;2023-05-21T08:12:55;4.78;;;3.45;;
75758;SDS011;64371;47.566;19.086;2023-05-21T08:15:58;5.38;;;4.43;;
75758;SDS011;64371;47.566;19.086;2023-05-21T08:19:01;5.63;;;4.87;;
75758;SDS011;64371;47.566;19.086;2023-05-21T08:22:04;5.22;;;4.28;;
75758;SDS011;64371;47.566;19.086;2023-05-21T08:25:11;5.50;;;4.25;;
75758;SDS011;64371;47.566;19.086;2023-05-21T08:28:14;6.03;;;3.97;;
75758;SDS011;64371;47.566;19.086;2023-05-21T08:31:17;5.97;;;4.30;;
75758;SDS011;64371;47.566;19.086;2023-05-21T08:34:19;7.97;;;3.80;;
75758;SDS011;64371;47.566;19.086;2023-05-21T08:37:32;6.47;;;4.25;;
75758;SDS011;64371;47.566;19.086;2023-05-21T08:40:46;5.00;;;3.63;;
75758;SDS011;64371;47.566;19.086;2023-05-21T08:43:56;4.03;;;3.63;;
75758;SDS011;64371;47.566;19.086;2023-05-21T08:47:03;7.72;;;4.10;;
75758;SDS011;64371;47.566;19.086;2023-05-21T08:50:10;6.33;;;3.57;;
75758;SDS011;64371;47.566;19.086;2023-05-21T08:53:17;5.93;;;4.40;;
75758;SDS011;64371;47.566;19.086;2023-05-21T08:56:30;6.30;;;4.57;;
75758;SDS011;64371;47.566;19.086;2023-05-21T08:59:33;4.35;;;3.70;;
75758;SDS011;64371;47.566;19.086;2023-05-21T09:02:43;5.78;;;4.20;;
75758;SDS011;64371;47.566;19.086;2023-05-21T09:05:47;6.60;;;4.30;;
75758;SDS011;64371;47.566;19.086;2023-05-21T09:09:01;6.40;;;4.15;;
75758;SDS011;64371;47.566;19.086;2023-05-21T09:12:18;5.55;;;3.67;;
75758;SDS011;64371;47.566;19.086;2023-05-21T09:15:21;4.63;;;4.13;;
75758;SDS011;64371;47.566;19.086;2023-05-21T09:18:24;7.07;;;4.40;;
75758;SDS011;64371;47.566;19.086;2023-05-21T09:21:36;5.37;;;3.87;;
75758;SDS011;64371;47.566;19.086;2023-05-21T09:24:50;4.68;;;4.07;;
75758;SDS011;64371;47.566;19.086;2023-05-21T09:27:56;7.18;;;4.78;;
75758;SDS011;64371;47.566;19.086;2023-05-21T09:31:02;5.70;;;4.25;;
75758;SDS011;64371;47.566;19.086;2023-05-21T09:34:04;4.97;;;3.88;;
75758;SDS011;64371;47.566;19.086;2023-05-21T09:37:07;6.53;;;3.90;;
75758;SDS011;64371;47.566;19.086;2023-05-21T09:40:28;5.60;;;4.45;;
75758;SDS011;64371;47.566;19.086;2023-05-21T09:43:31;6.45;;;4.97;;
75758;SDS011;64371;47.566;19.086;2023-05-21T09:46:38;5.65;;;4.28;;
75758;SDS011;64371;47.566;19.086;2023-05-21T09:49:42;6.05;;;4.10;;
75758;SDS011;64371;47.566;19.086;2023-05-21T09:52:45;5.73;;;4.40;;
75758;SDS011;64371;47.566;19.086;2023-05-21T09:55:48;5.90;;;4.25;;
75758;SDS011;64371;47.566;19.086;2023-05-21T09:58:55;6.00;;;3.65;;
75758;SDS011;64371;47.566;19.086;2023-05-21T10:02:01;4.65;;;3.83;;
75758;SDS011;64371;47.566;19.086;2023-05-21T10:05:06;8.02;;;4.63;;
75758;SDS011;64371;47.566;19.086;2023-05-21T10:08:11;4.90;;;4.43;;
75758;SDS011;64371;47.566;19.086;2023-05-21T10:11:15;5.97;;;4.22;;
75758;SDS011;64371;47.566;19.086;2023-05-21T10:14:19;6.55;;;3.75;;
75758;SDS011;64371;47.566;19.086;2023-05-21T10:17:24;5.82;;;4.45;;
75758;SDS011;64371;47.566;19.086;2023-05-21T10:20:27;4.93;;;3.97;;
75758;SDS011;64371;47.566;19.086;2023-05-21T10:23:30;6.27;;;4.33;;
75758;SDS011;64371;47.566;19.086;2023-05-21T10:26:33;6.03;;;4.22;;
75758;SDS011;64371;47.566;19.086;2023-05-21T10:29:37;5.22;;;3.83;;
75758;SDS011;64371;47.566;19.086;2023-05-21T10:32:42;4.70;;;4.03;;
75758;SDS011;64371;47.566;19.086;2023-05-21T10:35:45;5.05;;;4.07;;
75758;SDS011;64371;47.566;19.086;2023-05-21T10:38:49;4.00;;;2.77;;
75758;SDS011;64371;47.566;19.086;2023-05-21T10:41:58;5.85;;;4.15;;
75758;SDS011;64371;47.566;19.086;2023-05-21T10:45:15;3.28;;;2.83;;
75758;SDS011;64371;47.566;19.086;2023-05-21T11:01:36;5.60;;;4.03;;
75758;SDS011;64371;47.566;19.086;2023-05-21T11:04:43;6.18;;;3.97;;
75758;SDS011;64371;47.566;19.086;2023-05-21T11:07:50;6.00;;;4.13;;
75758;SDS011;64371;47.566;19.086;2023-05-21T11:10:58;5.67;;;4.00;;
75758;SDS011;64371;47.566;19.086;2023-05-21T11:14:00;5.00;;;3.83;;
75758;SDS011;64371;47.566;19.086;2023-05-21T11:20:12;6.70;;;4.03;;
75758;SDS011;64371;47.566;19.086;2023-05-21T11:23:16;5.28;;;4.22;;
75758;SDS011;64371;47.566;19.086;2023-05-21T11:26:20;5.13;;;4.00;;
75758;SDS011;64371;47.566;19.086;2023-05-21T11:29:36;5.13;;;3.38;;
75758;SDS011;64371;47.566;19.086;2023-05-21T11:36:10;6.93;;;4.47;;
75758;SDS011;64371;47.566;19.086;2023-05-21T11:39:17;4.75;;;3.92;;
75758;SDS011;64371;47.566;19.086;2023-05-21T11:42:33;5.27;;;3.57;;
75758;SDS011;64371;47.566;19.086;2023-05-21T11:45:39;5.97;;;4.50;;
75758;SDS011;64371;47.566;19.086;2023-05-21T11:48:47;8.40;;;4.60;;
75758;SDS011;64371;47.566;19.086;2023-05-21T11:51:53;5.20;;;4.07;;
75758;SDS011;64371;47.566;19.086;2023-05-21T11:54:55;6.47;;;4.22;;
75758;SDS011;64371;47.566;19.086;2023-05-21T11:57:59;5.50;;;4.20;;
75758;SDS011;64371;47.566;19.086;2023-05-21T12:01:01;5.10;;;4.00;;
75758;SDS011;64371;47.566;19.086;2023-05-21T12:04:04;7.00;;;4.78;;
75758;SDS011;64371;47.566;19.086;2023-05-21T12:07:08;5.15;;;4.65;;
75758;SDS011;64371;47.566;19.086;2023-05-21T12:10:11;4.45;;;3.75;;
75758;SDS011;64371;47.566;19.086;2023-05-21T12:13:14;6.10;;;4.70;;
75758;SDS011;64371;47.566;19.086;2023-05-21T12:16:16;7.28;;;4.55;;
75758;SDS011;64371;47.566;19.086;2023-05-21T12:19:19;5.60;;;4.63;;
75758;SDS011;64371;47.566;19.086;2023-05-21T12:22:22;7.45;;;4.15;;
75758;SDS011;64371;47.566;19.086;2023-05-21T12:25:25;5.90;;;4.60;;
75758;SDS011;64371;47.566;19.086;2023-05-21T12:28:28;5.30;;;4.47;;
75758;SDS011;64371;47.566;19.086;2023-05-21T12:31:31;6.70;;;5.30;;
75758;SDS011;64371;47.566;19.086;2023-05-21T12:34:44;6.40;;;4.63;;
75758;SDS011;64371;47.566;19.086;2023-05-21T12:37:48;6.28;;;4.60;;
75758;SDS011;64371;47.566;19.086;2023-05-21T12:40:51;5.55;;;4.95;;
75758;SDS011;64371;47.566;19.086;2023-05-21T12:43:54;8.17;;;4.87;;
75758;SDS011;64371;47.566;19.086;2023-05-21T12:46:57;6.72;;;4.78;;
75758;SDS011;64371;47.566;19.086;2023-05-21T12:50:01;10.55;;;5.00;;
75758;SDS011;64371;47.566;19.086;2023-05-21T12:53:09;6.55;;;5.03;;
75758;SDS011;64371;47.566;19.086;2023-05-21T12:56:14;5.90;;;4.53;;
75758;SDS011;64371;47.566;19.086;2023-05-21T12:59:17;9.60;;;5.33;;
75758;SDS011;64371;47.566;19.086;2023-05-21T13:02:20;6.90;;;5.22;;
75758;SDS011;64371;47.566;19.086;2023-05-21T13:05:26;5.78;;;4.97;;
75758;SDS011;64371;47.566;19.086;2023-05-21T13:08:29;7.70;;;5.10;;
75758;SDS011;64371;47.566;19.086;2023-05-21T13:11:31;8.07;;;5.20;;
75758;SDS011;64371;47.566;19.086;2023-05-21T13:14:34;4.93;;;4.43;;
75758;SDS011;64371;47.566;19.086;2023-05-21T13:17:38;6.43;;;4.80;;
75758;SDS011;64371;47.566;19.086;2023-05-21T13:20:41;5.32;;;4.57;;
75758;SDS011;64371;47.566;19.086;2023-05-21T13:23:44;4.70;;;4.25;;
75758;SDS011;64371;47.566;19.086;2023-05-21T13:26:47;6.18;;;4.40;;
75758;SDS011;64371;47.566;19.086;2023-05-21T13:29:49;6.57;;;4.40;;
75758;SDS011;64371;47.566;19.086;2023-05-21T13:32:52;7.60;;;4.85;;
75758;SDS011;64371;47.566;19.086;2023-05-21T13:35:55;7.13;;;4.45;;
75758;SDS011;64371;47.566;19.086;2023-05-21T13:38:57;6.78;;;4.00;;
75758;SDS011;64371;47.566;19.086;2023-05-21T13:41:59;5.13;;;3.72;;
75758;SDS011;64371;47.566;19.086;2023-05-21T13:45:05;6.20;;;4.10;;
75758;SDS011;64371;47.566;19.086;2023-05-21T13:48:09;5.50;;;4.50;;
75758;SDS011;64371;47.566;19.086;2023-05-21T13:51:16;6.20;;;4.80;;
75758;SDS011;64371;47.566;19.086;2023-05-21T13:54:38;10.85;;;4.32;;
75758;SDS011;64371;47.566;19.086;2023-05-21T13:57:41;7.13;;;5.18;;
75758;SDS011;64371;47.566;19.086;2023-05-21T14:00:44;7.90;;;4.63;;
75758;SDS011;64371;47.566;19.086;2023-05-21T14:03:46;6.38;;;4.85;;
75758;SDS011;64371;47.566;19.086;2023-05-21T14:06:49;5.35;;;4.05;;
75758;SDS011;64371;47.566;19.086;2023-05-21T14:09:52;5.85;;;3.95;;
75758;SDS011;64371;47.566;19.086;2023-05-21T14:12:54;4.97;;;4.43;;
75758;SDS011;64371;47.566;19.086;2023-05-21T14:16:08;4.93;;;3.73;;
75758;SDS011;64371;47.566;19.086;2023-05-21T14:19:10;6.28;;;4.72;;
75758;SDS011;64371;47.566;19.086;2023-05-21T14:22:13;6.78;;;4.78;;
75758;SDS011;64371;47.566;19.086;2023-05-21T14:25:15;5.50;;;4.85;;
75758;SDS011;64371;47.566;19.086;2023-05-21T14:28:19;5.75;;;5.00;;
75758;SDS011;64371;47.566;19.086;2023-05-21T14:31:21;7.63;;;3.90;;
75758;SDS011;64371;47.566;19.086;2023-05-21T14:34:24;6.28;;;4.95;;
75758;SDS011;64371;47.566;19.086;2023-05-21T14:37:26;7.40;;;4.68;;
75758;SDS011;64371;47.566;19.086;2023-05-21T14:40:29;7.07;;;4.82;;
75758;SDS011;64371;47.566;19.086;2023-05-21T14:43:31;7.80;;;4.65;;
75758;SDS011;64371;47.566;19.086;2023-05-21T14:46:34;5.83;;;4.30;;
75758;SDS011;64371;47.566;19.086;2023-05-21T14:49:37;6.35;;;4.50;;
75758;SDS011;64371;47.566;19.086;2023-05-21T14:52:40;6.82;;;4.60;;
75758;SDS011;64371;47.566;19.086;2023-05-21T14:55:44;6.85;;;5.00;;
75758;SDS011;64371;47.566;19.086;2023-05-21T14:58:47;7.93;;;4.30;;
75758;SDS011;64371;47.566;19.086;2023-05-21T15:01:49;6.60;;;4.47;;
75758;SDS011;64371;47.566;19.086;2023-05-21T15:04:54;7.85;;;4.82;;
75758;SDS011;64371;47.566;19.086;2023-05-21T15:07:57;5.68;;;4.60;;
75758;SDS011;64371;47.566;19.086;2023-05-21T15:10:59;7.78;;;4.60;;
75758;SDS011;64371;47.566;19.086;2023-05-21T15:14:02;7.93;;;4.28;;
75758;SDS011;64371;47.566;19.086;2023-05-21T15:17:04;7.80;;;4.60;;
75758;SDS011;64371;47.566;19.086;2023-05-21T15:20:07;6.57;;;4.35;;
75758;SDS011;64371;47.566;19.086;2023-05-21T15:23:10;9.88;;;5.40;;
75758;SDS011;64371;47.566;19.086;2023-05-21T15:26:18;7.13;;;5.00;;
75758;SDS011;64371;47.566;19.086;2023-05-21T15:29:22;6.05;;;4.00;;
75758;SDS011;64371;47.566;19.086;2023-05-21T15:32:24;7.27;;;4.97;;
75758;SDS011;64371;47.566;19.086;2023-05-21T15:35:27;5.75;;;4.60;;
75758;SDS011;64371;47.566;19.086;2023-05-21T15:38:29;5.70;;;5.00;;
75758;SDS011;64371;47.566;19.086;2023-05-21T15:41:35;6.40;;;3.67;;
75758;SDS011;64371;47.566;19.086;2023-05-21T15:44:40;5.35;;;3.78;;
75758;SDS011;64371;47.566;19.086;2023-05-21T15:47:42;7.70;;;4.97;;
75758;SDS011;64371;47.566;19.086;2023-05-21T15:50:45;7.28;;;4.40;;
75758;SDS011;64371;47.566;19.086;2023-05-21T15:53:47;6.30;;;5.00;;
75758;SDS011;64371;47.566;19.086;2023-05-21T15:56:49;7.15;;;4.72;;
75758;SDS011;64371;47.566;19.086;2023-05-21T15:59:52;5.40;;;4.72;;
75758;SDS011;64371;47.566;19.086;2023-05-21T16:02:54;6.97;;;4.60;;
75758;SDS011;64371;47.566;19.086;2023-05-21T16:06:00;7.18;;;4.75;;
75758;SDS011;64371;47.566;19.086;2023-05-21T16:09:02;7.65;;;5.13;;
75758;SDS011;64371;47.566;19.086;2023-05-21T16:12:05;6.70;;;4.50;;
75758;SDS011;64371;47.566;19.086;2023-05-21T16:15:07;7.53;;;4.50;;
75758;SDS011;64371;47.566;19.086;2023-05-21T16:18:10;7.13;;;4.93;;
75758;SDS011;64371;47.566;19.086;2023-05-21T16:21:13;5.57;;;3.65;;
75758;SDS011;64371;47.566;19.086;2023-05-21T16:24:15;7.82;;;5.07;;
75758;SDS011;64371;47.566;19.086;2023-05-21T16:27:17;5.35;;;4.47;;
75758;SDS011;64371;47.566;19.086;2023-05-21T16:30:20;5.28;;;4.40;;
75758;SDS011;64371;47.566;19.086;2023-05-21T16:33:23;5.07;;;4.57;;
75758;SDS011;64371;47.566;19.086;2023-05-21T16:36:25;6.72;;;4.53;;
75758;SDS011;64371;47.566;19.086;2023-05-21T16:39:27;6.53;;;4.90;;
75758;SDS011;64371;47.566;19.086;2023-05-21T16:42:31;7.05;;;4.32;;
75758;SDS011;64371;47.566;19.086;2023-05-21T16:45:34;5.95;;;4.55;;
75758;SDS011;64371;47.566;19.086;2023-05-21T16:48:40;5.10;;;4.33;;
75758;SDS011;64371;47.566;19.086;2023-05-21T16:51:43;6.13;;;4.28;;
75758;SDS011;64371;47.566;19.086;2023-05-21T16:54:46;6.15;;;4.50;;
75758;SDS011;64371;47.566;19.086;2023-05-21T16:57:49;5.72;;;4.38;;
75758;SDS011;64371;47.566;19.086;2023-05-21T17:00:52;4.93;;;4.30;;
75758;SDS011;64371;47.566;19.086;2023-05-21T17:03:54;6.03;;;4.40;;
75758;SDS011;64371;47.566;19.086;2023-05-21T17:06:57;7.72;;;4.20;;
75758;SDS011;64371;47.566;19.086;2023-05-21T17:09:59;5.93;;;3.95;;
75758;SDS011;64371;47.566;19.086;2023-05-21T17:13:03;6.18;;;4.70;;
75758;SDS011;64371;47.566;19.086;2023-05-21T17:16:22;5.70;;;4.53;;
75758;SDS011;64371;47.566;19.086;2023-05-21T17:19:26;7.03;;;4.60;;
75758;SDS011;64371;47.566;19.086;2023-05-21T17:22:28;9.95;;;5.60;;
75758;SDS011;64371;47.566;19.086;2023-05-21T17:25:31;6.30;;;5.25;;
75758;SDS011;64371;47.566;19.086;2023-05-21T17:28:35;6.25;;;5.40;;
75758;SDS011;64371;47.566;19.086;2023-05-21T17:31:37;6.05;;;4.40;;
75758;SDS011;64371;47.566;19.086;2023-05-21T17:34:40;7.03;;;5.20;;
75758;SDS011;64371;47.566;19.086;2023-05-21T17:37:42;10.45;;;5.07;;
75758;SDS011;64371;47.566;19.086;2023-05-21T17:40:45;8.05;;;5.13;;
75758;SDS011;64371;47.566;19.086;2023-05-21T17:43:49;8.43;;;5.05;;
75758;SDS011;64371;47.566;19.086;2023-05-21T17:46:52;6.50;;;4.78;;
75758;SDS011;64371;47.566;19.086;2023-05-21T17:49:54;5.97;;;5.03;;
75758;SDS011;64371;47.566;19.086;2023-05-21T17:52:57;6.47;;;5.25;;
75758;SDS011;64371;47.566;19.086;2023-05-21T17:56:00;8.30;;;5.63;;
75758;SDS011;64371;47.566;19.086;2023-05-21T17:59:04;8.35;;;5.22;;
75758;SDS011;64371;47.566;19.086;2023-05-21T18:02:10;5.63;;;5.03;;
75758;SDS011;64371;47.566;19.086;2023-05-21T18:05:13;10.30;;;5.03;;
75758;SDS011;64371;47.566;19.086;2023-05-21T18:08:15;7.38;;;5.07;;
75758;SDS011;64371;47.566;19.086;2023-05-21T18:11:18;11.23;;;6.00;;
75758;SDS011;64371;47.566;19.086;2023-05-21T18:14:20;9.43;;;5.60;;
75758;SDS011;64371;47.566;19.086;2023-05-21T18:17:23;9.93;;;5.55;;
75758;SDS011;64371;47.566;19.086;2023-05-21T18:20:25;7.20;;;5.70;;
75758;SDS011;64371;47.566;19.086;2023-05-21T18:23:28;8.80;;;5.85;;
75758;SDS011;64371;47.566;19.086;2023-05-21T18:26:32;10.60;;;6.50;;
75758;SDS011;64371;47.566;19.086;2023-05-21T18:29:34;8.40;;;6.07;;
75758;SDS011;64371;47.566;19.086;2023-05-21T18:32:37;11.82;;;6.45;;